createdAt,value
2022-11-24T00:01:06.114Z,4.79
2022-11-24T00:03:33.061Z,4.74
2022-11-24T00:06:08.106Z,4.69
2022-11-24T00:08:35.806Z,4.67
2022-11-24T00:11:07.225Z,4.62
2022-11-24T00:13:34.097Z,4.62
2022-11-24T00:16:16.786Z,4.59
2022-11-24T00:18:46.235Z,4.60
2022-11-24T00:21:14.295Z,4.56
2022-11-24T00:23:40.988Z,4.52
2022-11-24T00:26:15.822Z,4.52
2022-11-24T00:28:43.376Z,4.46
2022-11-24T00:31:25.633Z,4.44
2022-11-24T00:33:54.818Z,4.43
2022-11-24T00:36:21.811Z,4.40
2022-11-24T00:38:52.566Z,4.41
2022-11-24T00:41:19.095Z,4.39
2022-11-24T00:43:45.802Z,4.36
2022-11-24T00:46:12.418Z,4.33
2022-11-24T00:48:39.135Z,4.26
2022-11-24T00:51:08.294Z,4.24
2022-11-24T00:53:35.106Z,4.32
2022-11-24T00:56:04.021Z,4.31
2022-11-24T00:58:31.610Z,4.26
2022-11-24T01:01:08.723Z,4.26
2022-11-24T01:03:35.594Z,4.27
2022-11-24T01:06:12.358Z,4.29
2022-11-24T01:08:40.924Z,4.24
2022-11-24T01:11:08.376Z,4.13
2022-11-24T01:13:34.930Z,4.08
2022-11-24T01:16:01.551Z,4.08
2022-11-24T01:18:28.165Z,4.07
2022-11-24T01:20:54.780Z,4.05
2022-11-24T01:23:21.312Z,4.05
2022-11-24T01:25:47.862Z,4.07
2022-11-24T01:28:14.710Z,4.07
2022-11-24T01:30:41.321Z,4.05
2022-11-24T01:33:07.901Z,3.99
2022-11-24T01:35:34.667Z,3.93
2022-11-24T01:38:01.182Z,3.91
2022-11-24T01:40:27.722Z,3.94
2022-11-24T01:42:54.362Z,3.90
2022-11-24T01:45:30.107Z,3.85
2022-11-24T01:47:57.395Z,3.86
2022-11-24T01:50:24.250Z,3.82
2022-11-24T01:52:54.199Z,3.78
2022-11-24T01:55:25.662Z,3.76
2022-11-24T01:58:01.510Z,3.72
2022-11-24T02:00:28.573Z,3.68
2022-11-24T02:02:55.440Z,3.65
2022-11-24T02:05:28.581Z,3.59
2022-11-24T02:07:58.882Z,3.64
2022-11-24T02:10:25.532Z,3.59
2022-11-24T02:12:55.998Z,3.55
2022-11-24T02:15:23.288Z,3.52
2022-11-24T02:17:49.852Z,3.55
2022-11-24T02:20:17.735Z,3.59
2022-11-24T02:22:53.732Z,3.62
2022-11-24T02:25:48.152Z,3.69
2022-11-24T02:28:18.655Z,3.73
2022-11-24T02:30:45.726Z,3.73
2022-11-24T02:33:13.406Z,3.71
2022-11-24T02:35:40.440Z,3.68
2022-11-24T02:38:07.116Z,3.66
2022-11-24T02:40:33.775Z,3.66
2022-11-24T02:43:12.482Z,3.63
2022-11-24T02:45:39.256Z,3.59
2022-11-24T02:48:06.143Z,3.53
2022-11-24T02:50:32.668Z,3.54
2022-11-24T02:52:59.238Z,3.50
2022-11-24T02:55:25.927Z,3.47
2022-11-24T02:57:52.484Z,3.42
2022-11-24T03:00:19.380Z,3.28
2022-11-24T03:02:46.145Z,3.22
2022-11-24T03:05:13.183Z,3.21
2022-11-24T03:07:39.830Z,3.23
2022-11-24T03:10:07.175Z,3.20
2022-11-24T03:12:33.774Z,3.18
2022-11-24T03:15:00.842Z,3.19
2022-11-24T03:17:27.450Z,3.23
2022-11-24T03:19:53.989Z,3.19
2022-11-24T03:22:20.577Z,3.20
2022-11-24T03:24:47.130Z,3.21
2022-11-24T03:27:14.568Z,3.22
2022-11-24T03:29:41.151Z,3.21
2022-11-24T03:32:07.725Z,3.21
2022-11-24T03:34:34.526Z,3.19
2022-11-24T03:37:01.241Z,3.15
2022-11-24T03:39:27.881Z,3.10
2022-11-24T03:41:54.478Z,3.07
2022-11-24T03:44:21.441Z,3.06
2022-11-24T03:46:48.122Z,3.02
2022-11-24T03:49:14.739Z,3.09
2022-11-24T03:51:41.301Z,3.10
2022-11-24T03:54:08.077Z,3.15
2022-11-24T03:56:34.638Z,3.10
2022-11-24T03:59:01.206Z,3.07
2022-11-24T04:01:27.817Z,3.05
2022-11-24T04:03:54.478Z,3.02
2022-11-24T04:06:21.052Z,3.01
2022-11-24T04:08:47.623Z,3.04
2022-11-24T04:11:34.202Z,3.03
2022-11-24T04:14:00.789Z,3.05
2022-11-24T04:16:27.509Z,3.01
2022-11-24T04:18:54.121Z,3.02
2022-11-24T04:21:21.072Z,3.00
2022-11-24T04:23:47.637Z,3.01
2022-11-24T04:26:14.263Z,3.05
2022-11-24T04:28:40.801Z,3.03
2022-11-24T04:31:07.403Z,3.08
2022-11-24T04:33:34.019Z,3.11
2022-11-24T04:36:00.568Z,3.10
2022-11-24T04:39:24.932Z,3.13
2022-11-24T04:41:13.617Z,3.15
2022-11-24T04:43:41.157Z,3.22
2022-11-24T04:46:10.435Z,3.20
2022-11-24T04:48:37.189Z,3.42
2022-11-24T04:51:06.911Z,3.50
2022-11-24T04:53:33.609Z,3.50
2022-11-24T04:56:03.971Z,3.60
2022-11-24T04:58:30.508Z,3.68
2022-11-24T05:00:57.058Z,3.67
2022-11-24T05:03:23.963Z,3.61
2022-11-24T05:05:50.511Z,3.62
2022-11-24T05:08:17.118Z,3.61
2022-11-24T05:10:43.718Z,3.53
2022-11-24T05:13:11.978Z,3.48
2022-11-24T05:15:40.636Z,3.39
2022-11-24T05:18:10.687Z,3.34
2022-11-24T05:20:38.633Z,3.30
2022-11-24T05:23:07.451Z,3.25
2022-11-24T05:25:36.437Z,3.19
2022-11-24T05:28:05.654Z,3.10
2022-11-24T05:30:32.122Z,3.07
2022-11-24T05:32:58.832Z,3.01
2022-11-24T05:35:25.468Z,2.95
2022-11-24T05:37:52.090Z,2.89
2022-11-24T05:40:18.724Z,2.84
2022-11-24T05:42:48.016Z,2.84
2022-11-24T05:45:18.736Z,2.81
2022-11-24T05:47:46.126Z,2.82
2022-11-24T05:50:14.713Z,2.84
2022-11-24T05:52:41.345Z,2.88
2022-11-24T05:55:10.000Z,2.88
2022-11-24T05:57:36.580Z,2.84
2022-11-24T06:00:07.392Z,2.81
2022-11-24T06:02:34.015Z,2.73
2022-11-24T06:05:00.645Z,2.64
2022-11-24T06:07:27.451Z,2.69
2022-11-24T06:09:54.015Z,2.65
2022-11-24T06:12:20.700Z,2.67
2022-11-24T06:14:47.294Z,2.66
2022-11-24T06:17:13.983Z,2.68
2022-11-24T06:19:42.245Z,2.71
2022-11-24T06:22:09.066Z,2.71
2022-11-24T06:24:37.088Z,2.65
2022-11-24T06:27:03.930Z,2.69
2022-11-24T06:29:30.634Z,2.70
2022-11-24T06:31:57.290Z,2.75
2022-11-24T06:34:23.996Z,2.73
2022-11-24T06:36:50.531Z,2.74
2022-11-24T06:39:17.085Z,2.77
2022-11-24T06:41:43.605Z,2.78
2022-11-24T06:44:10.357Z,2.81
2022-11-24T06:46:37.583Z,3.01
2022-11-24T06:49:04.234Z,3.26
2022-11-24T06:51:42.593Z,3.45
2022-11-24T06:54:10.690Z,3.45
2022-11-24T06:56:37.294Z,3.45
2022-11-24T06:59:03.908Z,3.47
2022-11-24T07:01:30.648Z,3.68
2022-11-24T07:03:57.649Z,3.87
2022-11-24T07:06:25.862Z,4.24
2022-11-24T07:08:53.181Z,4.68
2022-11-24T07:11:24.338Z,5.13
2022-11-24T07:13:55.160Z,5.60
2022-11-24T07:16:26.083Z,6.03
2022-11-24T07:18:54.018Z,6.49
2022-11-24T07:21:23.406Z,7.12
2022-11-24T07:23:51.777Z,8.05
2022-11-24T07:26:18.968Z,8.32
2022-11-24T07:28:45.672Z,8.60
2022-11-24T07:31:18.995Z,8.80
2022-11-24T07:33:50.143Z,8.97
2022-11-24T07:36:17.218Z,9.21
2022-11-24T07:38:44.061Z,9.53
2022-11-24T07:41:12.532Z,9.79
2022-11-24T07:43:39.514Z,10.01
2022-11-24T07:46:08.049Z,10.15
2022-11-24T07:48:34.810Z,10.33
2022-11-24T07:51:02.870Z,10.39
2022-11-24T07:53:30.356Z,10.52
2022-11-24T07:56:00.338Z,10.67
2022-11-24T07:58:32.590Z,10.73
2022-11-24T08:01:00.716Z,10.85
2022-11-24T08:03:27.914Z,10.81
2022-11-24T08:08:46.673Z,11.67
2022-11-24T08:11:16.246Z,11.79
2022-11-24T08:13:43.586Z,11.81
2022-11-24T08:16:12.720Z,12.18
2022-11-24T08:18:39.633Z,12.37
2022-11-24T08:21:07.417Z,12.14
2022-11-24T08:23:34.350Z,12.45
2022-11-24T08:26:05.705Z,12.49
2022-11-24T08:28:32.846Z,12.23
2022-11-24T08:31:10.533Z,12.11
2022-11-24T08:33:37.366Z,12.35
2022-11-24T08:36:06.254Z,12.44
2022-11-24T08:38:32.758Z,12.53
2022-11-24T08:41:04.245Z,13.03
2022-11-24T08:43:31.349Z,13.11
2022-11-24T08:46:02.282Z,13.29
2022-11-24T08:48:29.790Z,13.29
2022-11-24T08:50:57.577Z,13.79
2022-11-24T08:53:24.813Z,13.75
2022-11-24T08:55:51.365Z,13.84
2022-11-24T08:58:17.948Z,13.62
2022-11-24T09:00:44.523Z,14.44
2022-11-24T09:03:11.936Z,14.61
2022-11-24T09:05:54.476Z,15.07
2022-11-24T09:08:21.035Z,15.26
2022-11-24T09:10:47.794Z,15.22
2022-11-24T09:13:14.450Z,15.21
2022-11-24T09:15:41.198Z,15.27
2022-11-24T09:18:07.810Z,15.38
2022-11-24T09:20:34.386Z,15.32
2022-11-24T09:23:00.891Z,15.26
2022-11-24T09:25:27.447Z,15.66
2022-11-24T09:27:54.797Z,16.04
2022-11-24T09:30:21.434Z,15.82
2022-11-24T09:32:48.090Z,16.41
2022-11-24T09:35:14.718Z,16.87
2022-11-24T09:37:43.394Z,17.04
2022-11-24T09:40:14.207Z,16.97
2022-11-24T09:42:59.421Z,16.31
2022-11-24T09:46:04.445Z,16.78
2022-11-24T09:48:36.388Z,16.69
2022-11-24T09:51:04.559Z,16.80
2022-11-24T09:53:49.282Z,17.19
2022-11-24T09:56:20.908Z,17.16
2022-11-24T09:58:59.483Z,16.92
2022-11-24T10:01:32.250Z,17.01
2022-11-24T10:04:05.538Z,16.77
2022-11-24T10:06:46.430Z,17.00
2022-11-24T10:09:25.441Z,17.10
2022-11-24T10:11:58.818Z,17.07
2022-11-24T10:14:55.350Z,17.17
2022-11-24T10:17:48.978Z,17.58
2022-11-24T10:20:22.372Z,17.74
2022-11-24T10:23:20.407Z,17.80
2022-11-24T10:25:54.433Z,17.83
2022-11-24T10:28:21.007Z,17.70
2022-11-24T10:30:49.826Z,17.89
2022-11-24T10:33:18.602Z,17.09
2022-11-24T10:35:51.594Z,17.24
2022-11-24T10:38:40.530Z,17.60
2022-11-24T10:41:36.718Z,17.35
2022-11-24T10:44:03.275Z,17.40
2022-11-24T10:46:32.551Z,16.72
2022-11-24T10:49:05.372Z,16.49
2022-11-24T10:51:50.538Z,16.14
2022-11-24T10:54:20.099Z,16.04
2022-11-24T10:56:50.118Z,16.32
2022-11-24T10:59:37.241Z,16.42
2022-11-24T11:02:35.901Z,16.32
2022-11-24T11:05:22.275Z,16.24
2022-11-24T11:07:48.915Z,16.09
2022-11-24T11:10:22.043Z,16.20
2022-11-24T11:12:48.719Z,16.51
2022-11-24T11:15:29.967Z,16.58
2022-11-24T11:18:04.165Z,15.93
2022-11-24T11:20:33.523Z,16.28
2022-11-24T11:23:41.854Z,16.52
2022-11-24T11:26:27.682Z,16.26
2022-11-24T11:34:55.333Z,17.20
2022-11-24T11:37:26.354Z,16.61
2022-11-24T11:39:55.298Z,16.99
2022-11-24T11:43:00.784Z,17.23
2022-11-24T11:45:31.934Z,17.87
2022-11-24T11:48:01.453Z,16.97
2022-11-24T11:51:06.539Z,17.12
2022-11-24T11:53:38.485Z,16.93
2022-11-24T11:56:04.985Z,17.48
2022-11-24T11:58:37.484Z,17.30
2022-11-24T12:01:24.335Z,17.84
2022-11-24T12:04:09.703Z,17.18
2022-11-24T12:06:42.203Z,17.32
2022-11-24T12:09:21.450Z,18.19
2022-11-24T12:12:04.632Z,17.62
2022-11-24T12:14:57.363Z,18.13
2022-11-24T12:17:40.312Z,17.47
2022-11-24T12:20:57.593Z,17.25
2022-11-24T12:24:09.434Z,17.29
2022-11-24T12:26:49.487Z,16.60
2022-11-24T12:29:51.958Z,16.55
2022-11-24T12:35:53.734Z,17.29
2022-11-24T12:38:56.288Z,16.73
2022-11-24T12:41:45.488Z,16.03
2022-11-24T12:44:57.748Z,16.06
2022-11-24T12:47:54.303Z,15.91
2022-11-24T12:50:26.530Z,15.59
2022-11-24T12:53:06.754Z,15.34
2022-11-24T12:55:34.108Z,15.29
2022-11-24T12:58:11.409Z,15.06
2022-11-24T13:00:49.930Z,15.07
2022-11-24T13:03:35.823Z,14.93
2022-11-24T13:06:23.813Z,14.50
2022-11-24T13:08:50.491Z,14.40
2022-11-24T13:11:22.827Z,14.56
2022-11-24T13:14:15.704Z,14.62
2022-11-24T13:17:13.398Z,14.61
2022-11-24T13:19:38.088Z,14.61
2022-11-24T13:22:07.985Z,14.55
2022-11-24T13:24:39.826Z,14.42
2022-11-24T13:27:15.422Z,14.24
2022-11-24T13:29:44.000Z,14.21
2022-11-24T13:32:14.496Z,14.20
2022-11-24T13:34:55.734Z,13.99
2022-11-24T13:37:31.459Z,13.88
2022-11-24T13:40:20.146Z,13.92
2022-11-24T13:43:03.607Z,13.97
2022-11-24T13:46:03.348Z,13.66
2022-11-24T13:48:33.614Z,13.61
2022-11-24T13:51:02.262Z,13.72
2022-11-24T13:53:42.754Z,13.61
2022-11-24T13:56:29.060Z,13.55
2022-11-24T13:59:14.504Z,13.65
2022-11-24T14:01:42.512Z,13.64
2022-11-24T14:04:31.575Z,13.65
2022-11-24T14:07:11.610Z,13.58
2022-11-24T14:09:58.952Z,13.41
2022-11-24T14:12:33.820Z,13.45
2022-11-24T14:15:27.307Z,13.40
2022-11-24T14:17:53.830Z,13.37
2022-11-24T14:20:25.864Z,13.29
2022-11-24T14:22:57.374Z,13.24
2022-11-24T14:25:32.878Z,13.19
2022-11-24T14:28:04.572Z,13.04
2022-11-24T14:30:32.023Z,12.95
2022-11-24T14:33:04.734Z,13.00
2022-11-24T14:35:38.915Z,12.91
2022-11-24T14:38:06.931Z,12.83
2022-11-24T14:40:49.949Z,12.74
2022-11-24T14:43:40.789Z,12.71
2022-11-24T14:46:18.095Z,12.59
2022-11-24T14:48:53.341Z,12.52
2022-11-24T14:51:44.865Z,12.46
2022-11-24T14:54:22.470Z,12.37
2022-11-24T14:57:25.664Z,12.25
2022-11-24T15:00:51.398Z,12.16
2022-11-24T15:03:26.151Z,12.03
2022-11-24T15:06:02.108Z,12.00
2022-11-24T15:08:45.980Z,11.90
2022-11-24T15:11:30.805Z,11.87
2022-11-24T15:15:02.039Z,11.74
2022-11-24T15:17:33.102Z,11.62
2022-11-24T15:20:25.658Z,11.58
2022-11-24T15:23:48.620Z,11.44
2022-11-24T15:26:45.409Z,11.39
2022-11-24T15:29:20.623Z,11.22
2022-11-24T15:31:52.380Z,11.17
2022-11-24T15:34:19.936Z,11.11
2022-11-24T15:36:46.754Z,10.98
2022-11-24T15:39:13.444Z,10.86
2022-11-24T15:41:42.504Z,10.74
2022-11-24T15:44:35.575Z,10.57
2022-11-24T15:47:06.156Z,10.54
2022-11-24T15:49:41.289Z,10.46
2022-11-24T15:52:10.459Z,10.36
2022-11-24T15:54:37.303Z,10.32
2022-11-24T15:57:04.417Z,10.19
2022-11-24T15:59:34.092Z,10.11
2022-11-24T16:02:04.348Z,10.09
2022-11-24T16:04:41.560Z,10.00
2022-11-24T16:07:12.822Z,9.92
2022-11-24T16:09:40.867Z,9.83
2022-11-24T16:12:09.485Z,9.75
2022-11-24T16:14:36.491Z,9.79
2022-11-24T16:17:03.722Z,9.76
2022-11-24T16:19:30.302Z,9.65
2022-11-24T16:21:56.969Z,9.57
2022-11-24T16:24:23.608Z,9.50
2022-11-24T16:26:50.169Z,9.45
2022-11-24T16:29:16.838Z,9.43
2022-11-24T16:31:44.480Z,9.37
2022-11-24T16:34:11.048Z,9.25
2022-11-24T16:36:37.570Z,8.99
2022-11-24T16:39:04.214Z,8.80
2022-11-24T16:41:30.745Z,8.64
2022-11-24T16:43:57.356Z,8.54
2022-11-24T16:46:25.368Z,8.45
2022-11-24T16:48:54.977Z,8.48
2022-11-24T16:51:22.965Z,8.53
2022-11-24T16:54:00.417Z,8.54
2022-11-24T16:56:28.179Z,8.48
2022-11-24T16:58:55.166Z,8.47
2022-11-24T17:01:23.567Z,8.41
2022-11-24T17:03:50.202Z,8.36
2022-11-24T17:06:16.878Z,8.31
2022-11-24T17:08:45.204Z,8.28
2022-11-24T17:11:17.205Z,8.19
2022-11-24T17:13:45.481Z,8.16
2022-11-24T17:16:14.561Z,8.11
2022-11-24T17:18:41.561Z,8.09
2022-11-24T17:21:12.734Z,7.99
2022-11-24T17:23:39.401Z,7.90
2022-11-24T17:26:08.714Z,7.80
2022-11-24T17:28:36.128Z,7.74
2022-11-24T17:31:15.517Z,7.61
2022-11-24T17:33:42.074Z,7.50
2022-11-24T17:36:08.980Z,7.47
2022-11-24T17:38:36.145Z,7.44
2022-11-24T17:41:02.968Z,7.41
2022-11-24T17:43:29.546Z,7.32
2022-11-24T17:45:58.139Z,7.28
2022-11-24T17:48:25.231Z,7.31
2022-11-24T17:51:09.752Z,7.32
2022-11-24T17:53:37.362Z,7.27
2022-11-24T17:56:04.359Z,7.21
2022-11-24T17:58:32.471Z,7.16
2022-11-24T18:00:59.621Z,7.05
2022-11-24T18:03:31.632Z,6.97
2022-11-24T18:06:05.333Z,6.91
2022-11-24T18:08:39.919Z,6.80
2022-11-24T18:11:08.429Z,6.79
2022-11-24T18:13:55.869Z,6.76
2022-11-24T18:16:22.114Z,6.68
2022-11-24T18:18:50.378Z,6.63
2022-11-24T18:21:18.169Z,6.66
2022-11-24T18:23:45.116Z,6.68
2022-11-24T18:26:14.912Z,6.71
2022-11-24T18:28:43.479Z,6.69
2022-11-24T18:31:15.474Z,6.64
2022-11-24T18:33:43.571Z,6.63
2022-11-24T18:36:13.807Z,6.61
2022-11-24T18:38:40.405Z,6.58
2022-11-24T18:41:07.067Z,6.52
2022-11-24T18:43:36.406Z,6.49
2022-11-24T18:46:07.699Z,6.45
2022-11-24T18:48:34.737Z,6.51
2022-11-24T18:51:01.566Z,6.48
2022-11-24T18:53:29.331Z,6.51
2022-11-24T18:56:03.149Z,6.51
2022-11-24T18:58:31.354Z,6.50
2022-11-24T19:01:09.922Z,6.48
2022-11-24T19:03:42.382Z,6.46
2022-11-24T19:06:16.370Z,6.40
2022-11-24T19:08:44.958Z,6.36
2022-11-24T19:11:42.319Z,6.29
2022-11-24T19:14:14.661Z,6.26
2022-11-24T19:16:41.344Z,6.24
2022-11-24T19:19:08.897Z,6.22
2022-11-24T19:21:37.866Z,6.21
2022-11-24T19:24:05.969Z,6.15
2022-11-24T19:26:35.072Z,6.13
2022-11-24T19:29:03.113Z,6.09
2022-11-24T19:31:29.833Z,6.06
2022-11-24T19:33:58.414Z,6.00
2022-11-24T19:36:26.141Z,6.01
2022-11-24T19:38:55.951Z,5.93
2022-11-24T19:41:24.653Z,5.96
2022-11-24T19:43:53.542Z,5.86
2022-11-24T19:46:21.901Z,5.87
2022-11-24T19:48:54.184Z,5.80
2022-11-24T19:51:23.238Z,5.80
2022-11-24T19:53:49.822Z,5.72
2022-11-24T19:56:19.161Z,5.73
2022-11-24T19:58:46.633Z,5.73
2022-11-24T20:01:22.263Z,5.73
2022-11-24T20:04:13.557Z,5.74
2022-11-24T20:06:42.741Z,5.74
2022-11-24T20:09:10.193Z,5.74
2022-11-24T20:11:38.033Z,5.69
2022-11-24T20:14:05.861Z,5.70
2022-11-24T20:16:34.414Z,5.68
2022-11-24T20:19:11.260Z,5.70
2022-11-24T20:21:38.725Z,5.66
2022-11-24T20:24:11.743Z,5.67
2022-11-24T20:26:44.838Z,5.65
2022-11-24T20:29:13.432Z,5.60
2022-11-24T20:31:45.534Z,5.56
2022-11-24T20:34:12.725Z,5.54
2022-11-24T20:36:41.927Z,5.56
2022-11-24T20:39:11.954Z,5.57
2022-11-24T20:41:40.069Z,5.60
2022-11-24T20:44:08.667Z,5.60
2022-11-24T20:46:38.309Z,5.56
2022-11-24T20:49:06.644Z,5.58
2022-11-24T20:51:36.637Z,5.55
2022-11-24T20:54:07.914Z,5.50
2022-11-24T20:56:38.136Z,5.46
2022-11-24T20:59:04.734Z,5.51
2022-11-24T21:01:38.354Z,5.57
2022-11-24T21:04:08.461Z,5.62
2022-11-24T21:06:35.225Z,5.66
2022-11-24T21:09:03.758Z,5.72
2022-11-24T21:11:31.681Z,5.72
2022-11-24T21:13:58.992Z,5.74
2022-11-24T21:16:31.165Z,5.78
2022-11-24T21:19:00.391Z,5.83
2022-11-24T21:21:28.237Z,5.82
2022-11-24T21:23:54.769Z,5.81
2022-11-24T21:26:21.558Z,5.74
2022-11-24T21:28:48.190Z,5.74
2022-11-24T21:31:17.747Z,5.71
2022-11-24T21:33:46.663Z,5.68
2022-11-24T21:36:14.792Z,5.68
2022-11-24T21:38:42.686Z,5.72
2022-11-24T21:41:11.565Z,5.66
2022-11-24T21:43:38.697Z,5.64
2022-11-24T21:46:10.818Z,5.58
2022-11-24T21:48:38.950Z,5.58
2022-11-24T21:51:07.856Z,5.55
2022-11-24T21:53:40.490Z,5.53
2022-11-24T21:56:13.781Z,5.51
2022-11-24T21:58:48.522Z,5.54
2022-11-24T22:01:17.117Z,5.53
2022-11-24T22:03:44.479Z,5.49
2022-11-24T22:06:11.791Z,5.34
2022-11-24T22:08:38.743Z,5.50
2022-11-24T22:11:12.369Z,5.49
2022-11-24T22:13:39.599Z,5.48
2022-11-24T22:16:12.072Z,5.39
2022-11-24T22:18:41.129Z,5.45
2022-11-24T22:21:11.227Z,5.50
2022-11-24T22:23:37.854Z,5.51
2022-11-24T22:26:16.463Z,5.54
2022-11-24T22:28:43.976Z,5.52
2022-11-24T22:31:16.533Z,5.50
2022-11-24T22:33:46.428Z,5.52
2022-11-24T22:36:14.621Z,5.55
2022-11-24T22:38:42.581Z,5.57
2022-11-24T22:41:15.011Z,5.65
2022-11-24T22:43:43.196Z,5.68
2022-11-24T22:46:15.404Z,5.71
2022-11-24T22:48:42.737Z,5.78
2022-11-24T22:51:14.505Z,5.75
2022-11-24T22:53:41.896Z,5.78
2022-11-24T22:56:10.962Z,5.79
2022-11-24T22:58:39.204Z,5.78
2022-11-24T23:01:06.381Z,5.70
2022-11-24T23:03:36.249Z,5.58
2022-11-24T23:06:04.540Z,5.46
2022-11-24T23:08:33.892Z,5.34
2022-11-24T23:11:07.825Z,5.24
2022-11-24T23:13:34.744Z,5.21
2022-11-24T23:16:03.461Z,5.25
2022-11-24T23:18:31.038Z,5.25
2022-11-24T23:21:07.644Z,5.31
2022-11-24T23:23:34.882Z,5.32
2022-11-24T23:26:03.249Z,5.33
2022-11-24T23:28:30.345Z,5.34
2022-11-24T23:31:18.580Z,5.30
2022-11-24T23:33:45.812Z,5.31
2022-11-24T23:36:14.829Z,5.28
2022-11-24T23:38:42.478Z,5.24
2022-11-24T23:41:11.705Z,5.23
2022-11-24T23:43:40.793Z,5.24
2022-11-24T23:46:09.131Z,5.21
2022-11-24T23:48:36.462Z,5.22
2022-11-24T23:51:05.274Z,5.22
2022-11-24T23:53:32.945Z,5.18
2022-11-24T23:55:59.843Z,5.09
2022-11-24T23:58:26.480Z,5.07
